createdAt,value
2018-02-22T00:01:14.597Z,33.00
2018-02-22T00:03:42.211Z,36.67
2018-02-22T00:06:10.572Z,36.47
2018-02-22T00:08:38.192Z,36.53
2018-02-22T00:11:05.796Z,32.53
2018-02-22T00:13:33.420Z,30.17
2018-02-22T00:16:01.021Z,33.70
2018-02-22T00:18:28.671Z,33.47
2018-02-22T00:20:56.270Z,33.80
2018-02-22T00:23:24.646Z,33.83
2018-02-22T00:25:53.037Z,28.40
2018-02-22T00:28:20.642Z,31.57
2018-02-22T00:30:48.260Z,35.10
2018-02-22T00:33:16.625Z,30.80
2018-02-22T00:35:45.038Z,38.63
2018-02-22T00:38:12.641Z,43.10
2018-02-22T00:40:40.246Z,40.10
2018-02-22T00:43:07.889Z,36.73
2018-02-22T00:45:36.455Z,34.33
2018-02-22T00:48:04.134Z,39.40
2018-02-22T00:50:32.502Z,36.17
2018-02-22T00:53:00.945Z,34.37
2018-02-22T00:55:28.560Z,39.03
2018-02-22T00:57:56.932Z,37.47
2018-02-22T01:00:25.332Z,38.67
2018-02-22T01:02:52.935Z,40.57
2018-02-22T01:05:20.568Z,34.83
2018-02-22T01:07:48.169Z,41.87
2018-02-22T01:10:15.800Z,39.87
2018-02-22T01:12:43.413Z,39.53
2018-02-22T01:15:11.828Z,35.93
2018-02-22T01:17:39.427Z,40.60
2018-02-22T01:20:07.028Z,44.50
2018-02-22T01:22:34.657Z,40.37
2018-02-22T01:25:02.272Z,37.17
2018-02-22T01:27:29.916Z,47.20
2018-02-22T01:29:57.608Z,51.23
2018-02-22T01:32:25.206Z,46.57
2018-02-22T01:34:52.828Z,33.93
2018-02-22T01:37:20.423Z,35.80
2018-02-22T01:39:48.087Z,32.90
2018-02-22T01:42:15.680Z,37.77
2018-02-22T01:44:43.391Z,38.93
2018-02-22T01:47:11.040Z,40.30
2018-02-22T01:49:38.657Z,37.90
2018-02-22T01:52:07.057Z,41.03
2018-02-22T01:54:34.655Z,36.17
2018-02-22T01:57:02.280Z,36.13
2018-02-22T01:59:29.876Z,42.70
2018-02-22T02:01:57.515Z,41.13
2018-02-22T02:04:25.112Z,40.53
2018-02-22T02:06:54.872Z,42.37
2018-02-22T02:09:22.521Z,36.23
2018-02-22T02:11:50.143Z,38.03
2018-02-22T02:14:18.602Z,40.77
2018-02-22T02:16:46.272Z,40.40
2018-02-22T02:19:13.937Z,34.87
2018-02-22T02:21:41.599Z,36.90
2018-02-22T02:24:09.448Z,32.70
2018-02-22T02:26:37.109Z,28.30
2018-02-22T02:29:04.774Z,31.73
2018-02-22T02:31:32.538Z,38.70
2018-02-22T02:34:00.326Z,44.93
2018-02-22T02:36:28.077Z,36.90
2018-02-22T02:38:55.769Z,35.67
2018-02-22T02:41:24.314Z,40.83
2018-02-22T02:43:51.971Z,40.90
2018-02-22T02:46:19.682Z,35.33
2018-02-22T02:48:48.217Z,37.67
2018-02-22T02:51:15.922Z,44.17
2018-02-22T02:53:44.362Z,42.77
2018-02-22T02:56:11.965Z,37.30
2018-02-22T02:58:39.795Z,42.10
2018-02-22T03:01:07.511Z,46.33
2018-02-22T03:03:35.928Z,45.70
2018-02-22T03:06:03.693Z,43.07
2018-02-22T03:08:31.560Z,38.07
2018-02-22T03:10:59.224Z,42.40
2018-02-22T03:13:26.986Z,40.40
2018-02-22T03:15:54.704Z,41.07
2018-02-22T03:18:23.238Z,51.60
2018-02-22T03:20:50.907Z,36.03
2018-02-22T03:23:18.683Z,38.70
2018-02-22T03:25:46.321Z,45.80
2018-02-22T03:28:14.087Z,37.57
2018-02-22T03:30:41.859Z,37.87
2018-02-22T03:33:09.686Z,37.47
2018-02-22T03:35:37.322Z,38.73
2018-02-22T03:38:05.756Z,37.10
2018-02-22T03:40:33.541Z,36.77
2018-02-22T03:43:01.208Z,41.53
2018-02-22T03:45:29.630Z,37.50
2018-02-22T03:47:57.346Z,39.43
2018-02-22T03:50:25.013Z,39.07
2018-02-22T03:52:52.767Z,42.93
2018-02-22T03:55:20.526Z,43.60
2018-02-22T03:57:48.278Z,38.80
2018-02-22T04:00:16.050Z,42.40
2018-02-22T04:02:43.686Z,44.03
2018-02-22T04:05:11.496Z,41.30
2018-02-22T04:07:40.783Z,44.07
2018-02-22T04:10:08.443Z,44.93
2018-02-22T04:12:36.156Z,52.03
2018-02-22T04:15:04.713Z,48.63
2018-02-22T04:17:33.260Z,43.57
2018-02-22T04:20:01.030Z,44.03
2018-02-22T04:22:28.896Z,46.77
2018-02-22T04:24:56.521Z,42.07
2018-02-22T04:27:24.267Z,44.50
2018-02-22T04:29:52.814Z,43.60
2018-02-22T04:32:21.314Z,41.80
2018-02-22T04:34:49.705Z,39.80
2018-02-22T04:37:18.118Z,44.90
2018-02-22T04:39:45.914Z,40.70
2018-02-22T04:42:13.547Z,44.73
2018-02-22T04:44:41.350Z,53.97
2018-02-22T04:47:08.960Z,49.73
2018-02-22T04:49:36.663Z,42.03
2018-02-22T04:52:04.293Z,41.37
2018-02-22T04:54:32.011Z,45.23
2018-02-22T04:56:59.656Z,49.80
2018-02-22T04:59:28.342Z,50.77
2018-02-22T05:01:56.022Z,46.60
2018-02-22T05:04:23.860Z,47.17
2018-02-22T05:06:51.722Z,45.30
2018-02-22T05:09:19.362Z,44.57
2018-02-22T05:11:47.161Z,38.20
2018-02-22T05:14:14.986Z,44.43
2018-02-22T05:16:43.405Z,52.37
2018-02-22T05:19:11.069Z,53.50
2018-02-22T05:21:38.925Z,48.00
2018-02-22T05:24:06.636Z,43.90
2018-02-22T05:26:35.167Z,40.10
2018-02-22T05:29:02.951Z,48.00
2018-02-22T05:31:30.895Z,42.93
2018-02-22T05:33:58.499Z,35.70
2018-02-22T05:36:26.247Z,49.60
2018-02-22T05:38:53.988Z,56.90
2018-02-22T05:41:21.769Z,57.57
2018-02-22T05:43:49.444Z,50.30
2018-02-22T05:46:17.202Z,46.60
2018-02-22T05:48:44.962Z,44.50
2018-02-22T05:51:12.734Z,42.73
2018-02-22T05:53:40.471Z,48.87
2018-02-22T05:56:08.098Z,43.33
2018-02-22T05:58:36.588Z,50.50
2018-02-22T06:01:04.308Z,49.37
2018-02-22T06:03:32.736Z,50.37
2018-02-22T06:06:00.439Z,48.30
2018-02-22T06:08:28.096Z,49.43
2018-02-22T06:10:55.761Z,48.87
2018-02-22T06:13:23.391Z,47.33
2018-02-22T06:15:51.191Z,56.97
2018-02-22T06:18:18.878Z,49.30
2018-02-22T06:20:47.255Z,44.10
2018-02-22T06:23:14.992Z,57.17
2018-02-22T06:25:42.762Z,48.77
2018-02-22T06:28:10.515Z,45.83
2018-02-22T06:30:38.159Z,41.57
2018-02-22T06:33:05.936Z,38.80
2018-02-22T06:35:33.712Z,42.87
2018-02-22T06:38:01.485Z,36.07
2018-02-22T06:40:29.167Z,32.57
2018-02-22T06:42:57.573Z,36.03
2018-02-22T06:45:25.378Z,46.60
2018-02-22T06:47:53.017Z,42.30
2018-02-22T06:50:20.724Z,43.20
2018-02-22T06:52:49.181Z,44.37
2018-02-22T06:55:16.909Z,44.83
2018-02-22T06:57:44.611Z,46.60
2018-02-22T07:00:12.272Z,53.33
2018-02-22T07:02:40.032Z,46.63
2018-02-22T07:05:07.801Z,45.33
2018-02-22T07:07:35.427Z,34.03
2018-02-22T07:10:03.151Z,42.30
2018-02-22T07:12:30.789Z,46.83
2018-02-22T07:14:58.652Z,48.53
2018-02-22T07:17:26.534Z,41.67
2018-02-22T07:19:55.666Z,45.20
2018-02-22T07:22:24.136Z,47.80
2018-02-22T07:24:52.674Z,40.23
2018-02-22T07:27:20.431Z,48.07
2018-02-22T07:29:48.202Z,53.80
2018-02-22T07:32:15.978Z,44.90
2018-02-22T07:34:43.767Z,51.67
2018-02-22T07:37:11.603Z,47.10
2018-02-22T07:39:39.302Z,43.60
2018-02-22T07:42:07.844Z,45.47
2018-02-22T07:44:35.517Z,47.27
2018-02-22T07:47:03.253Z,41.27
2018-02-22T07:49:30.956Z,42.30
2018-02-22T07:51:58.694Z,49.20
2018-02-22T07:54:26.474Z,46.53
2018-02-22T07:56:54.326Z,46.83
2018-02-22T07:59:22.163Z,46.77
2018-02-22T08:01:49.877Z,41.30
2018-02-22T08:04:17.644Z,47.93
2018-02-22T08:06:45.272Z,51.03
2018-02-22T08:09:13.168Z,42.90
2018-02-22T08:11:40.923Z,48.40
2018-02-22T08:14:08.596Z,51.93
2018-02-22T08:16:37.052Z,35.57
2018-02-22T08:19:04.918Z,47.83
2018-02-22T08:21:32.806Z,37.97
2018-02-22T08:24:02.211Z,50.63
2018-02-22T08:26:29.823Z,53.90
2018-02-22T08:28:57.667Z,44.33
2018-02-22T08:31:26.417Z,45.63
2018-02-22T08:33:54.235Z,48.30
2018-02-22T08:36:22.056Z,44.13
2018-02-22T08:38:49.907Z,46.03
2018-02-22T08:41:17.779Z,40.20
2018-02-22T08:43:45.370Z,45.03
2018-02-22T08:46:13.765Z,42.50
2018-02-22T08:48:41.384Z,45.73
2018-02-22T08:51:09.049Z,37.60
2018-02-22T08:53:38.165Z,40.33
2018-02-22T08:56:05.790Z,48.60
2018-02-22T08:58:33.390Z,37.97
2018-02-22T09:01:01.771Z,43.13
2018-02-22T09:03:30.210Z,44.70
2018-02-22T09:05:57.801Z,34.37
2018-02-22T09:08:26.220Z,35.87
2018-02-22T09:10:53.817Z,40.43
2018-02-22T09:13:21.421Z,35.87
2018-02-22T09:15:49.817Z,36.37
2018-02-22T09:18:17.418Z,39.60
2018-02-22T09:20:45.046Z,46.80
2018-02-22T09:23:12.671Z,42.50
2018-02-22T09:25:41.076Z,37.00
2018-02-22T09:28:08.677Z,32.20
2018-02-22T09:30:36.310Z,37.57
2018-02-22T09:33:03.917Z,40.00
2018-02-22T09:35:31.657Z,32.50
2018-02-22T09:37:59.453Z,35.30
2018-02-22T09:40:27.085Z,35.77
2018-02-22T09:42:54.689Z,38.13
2018-02-22T09:45:23.077Z,32.10
2018-02-22T09:47:50.680Z,39.13
2018-02-22T09:50:18.347Z,40.53
2018-02-22T09:52:45.930Z,32.07
2018-02-22T09:55:13.660Z,30.33
2018-02-22T09:57:41.252Z,42.03
2018-02-22T10:00:09.650Z,39.30
2018-02-22T10:02:38.015Z,42.23
2018-02-22T10:05:05.651Z,34.13
2018-02-22T10:07:33.281Z,35.83
2018-02-22T10:10:00.917Z,37.77
2018-02-22T10:12:29.310Z,35.07
2018-02-22T10:14:57.040Z,32.40
2018-02-22T10:17:24.772Z,38.47
2018-02-22T10:19:52.365Z,25.83
2018-02-22T10:22:20.001Z,28.70
2018-02-22T10:24:47.604Z,32.90
2018-02-22T10:27:16.005Z,29.93
2018-02-22T10:29:43.603Z,25.40
2018-02-22T10:32:11.254Z,36.10
2018-02-22T10:34:38.849Z,29.37
2018-02-22T10:37:06.643Z,32.30
2018-02-22T10:39:34.254Z,32.20
2018-02-22T10:42:02.073Z,38.73
2018-02-22T10:44:29.720Z,31.60
2018-02-22T10:46:58.087Z,36.80
2018-02-22T10:49:26.488Z,28.30
2018-02-22T10:51:54.309Z,34.17
2018-02-22T10:54:23.562Z,27.00
2018-02-22T10:56:51.197Z,34.70
2018-02-22T10:59:19.633Z,35.00
2018-02-22T11:01:52.947Z,36.60
2018-02-22T11:04:20.541Z,28.47
2018-02-22T11:06:48.945Z,28.73
2018-02-22T11:09:16.628Z,23.97
2018-02-22T11:11:44.307Z,27.43
2018-02-22T11:14:11.971Z,31.20
2018-02-22T11:16:39.577Z,28.27
2018-02-22T11:19:07.373Z,33.20
2018-02-22T11:21:35.039Z,28.20
2018-02-22T11:24:02.851Z,29.43
2018-02-22T11:26:31.506Z,32.60
2018-02-22T11:28:59.267Z,30.17
2018-02-22T11:31:27.130Z,29.67
2018-02-22T11:33:54.723Z,26.20
2018-02-22T11:36:23.139Z,27.13
2018-02-22T11:38:50.755Z,38.50
2018-02-22T11:41:18.394Z,26.90
2018-02-22T11:43:46.017Z,31.70
2018-02-22T11:46:13.642Z,30.07
2018-02-22T11:48:41.280Z,30.90
2018-02-22T11:51:08.940Z,28.07
2018-02-22T11:53:36.594Z,30.70
2018-02-22T11:56:04.470Z,26.77
2018-02-22T11:58:32.341Z,24.90
2018-02-22T12:01:00.200Z,22.50
2018-02-22T12:03:27.877Z,24.43
2018-02-22T12:05:55.516Z,31.53
2018-02-22T12:08:23.180Z,27.53
2018-02-22T12:10:50.898Z,25.60
2018-02-22T12:13:18.703Z,23.90
2018-02-22T12:15:46.334Z,30.13
2018-02-22T12:18:13.940Z,27.37
2018-02-22T12:20:41.704Z,31.80
2018-02-22T12:23:09.309Z,26.17
2018-02-22T12:25:36.964Z,25.70
2018-02-22T12:28:05.372Z,21.43
2018-02-22T12:30:33.006Z,29.07
2018-02-22T12:33:01.446Z,25.83
2018-02-22T12:35:29.124Z,22.47
2018-02-22T12:37:56.857Z,27.70
2018-02-22T12:40:24.549Z,24.10
2018-02-22T12:42:52.157Z,33.47
2018-02-22T12:45:19.792Z,19.20
2018-02-22T12:47:47.433Z,25.87
2018-02-22T12:50:15.090Z,26.87
2018-02-22T12:52:42.697Z,33.73
2018-02-22T12:55:10.325Z,26.20
2018-02-22T13:00:10.778Z,31.03
2018-02-22T13:05:12.815Z,33.07
2018-02-22T13:07:40.408Z,31.03
2018-02-22T13:10:08.778Z,28.70
2018-02-22T13:12:36.418Z,33.57
2018-02-22T13:15:04.029Z,26.20
2018-02-22T13:17:32.441Z,37.13
2018-02-22T13:20:00.037Z,25.13
2018-02-22T13:22:27.653Z,31.77
2018-02-22T13:24:55.285Z,25.57
2018-02-22T13:27:23.662Z,29.33
2018-02-22T13:29:52.058Z,38.60
2018-02-22T13:32:19.680Z,39.40
2018-02-22T13:34:47.312Z,35.93
2018-02-22T13:37:26.741Z,33.10
2018-02-22T13:39:54.373Z,34.70
2018-02-22T13:42:22.738Z,29.20
2018-02-22T13:45:03.190Z,30.60
2018-02-22T13:47:31.556Z,27.70
2018-02-22T13:50:11.277Z,30.30
2018-02-22T13:52:38.877Z,31.60
2018-02-22T13:55:06.564Z,26.97
2018-02-22T13:57:34.181Z,26.73
2018-02-22T14:00:01.818Z,31.13
2018-02-22T14:02:29.431Z,31.00
2018-02-22T14:04:57.831Z,29.03
2018-02-22T14:07:25.432Z,25.57
2018-02-22T14:09:53.068Z,28.90
2018-02-22T14:12:20.681Z,23.00
2018-02-22T14:14:48.297Z,29.50
2018-02-22T14:17:15.943Z,25.87
2018-02-22T14:19:43.542Z,29.10
2018-02-22T14:22:11.193Z,31.23
2018-02-22T14:24:38.825Z,20.67
2018-02-22T14:27:06.480Z,32.60
2018-02-22T14:29:34.193Z,29.87
2018-02-22T14:32:01.835Z,33.97
2018-02-22T14:34:29.429Z,29.17
2018-02-22T14:36:57.036Z,32.90
2018-02-22T14:39:24.668Z,27.40
2018-02-22T14:41:53.037Z,35.90
2018-02-22T14:44:21.444Z,33.23
2018-02-22T14:46:49.144Z,33.37
2018-02-22T14:49:16.753Z,28.93
2018-02-22T14:51:45.148Z,28.40
2018-02-22T14:54:12.745Z,38.27
2018-02-22T14:56:40.374Z,32.77
2018-02-22T14:59:08.073Z,35.90
2018-02-22T15:01:35.673Z,39.33
2018-02-22T15:04:04.073Z,37.67
2018-02-22T15:06:31.883Z,36.67
2018-02-22T15:08:59.756Z,39.33
2018-02-22T15:11:27.363Z,43.77
2018-02-22T15:13:55.086Z,41.93
2018-02-22T15:16:22.975Z,36.03
2018-02-22T15:18:51.584Z,41.90
2018-02-22T15:21:19.504Z,39.00
2018-02-22T15:23:47.505Z,41.20
2018-02-22T15:26:15.940Z,36.10
2018-02-22T15:28:43.811Z,33.73
2018-02-22T15:31:11.573Z,39.33
2018-02-22T15:33:40.077Z,32.77
2018-02-22T15:36:08.830Z,35.97
2018-02-22T15:38:36.717Z,34.93
2018-02-22T15:41:05.245Z,34.03
2018-02-22T15:43:32.946Z,35.20
2018-02-22T15:46:00.653Z,32.10
2018-02-22T15:48:29.412Z,32.80
2018-02-22T15:50:57.060Z,42.63
2018-02-22T15:53:25.641Z,39.60
2018-02-22T15:55:53.505Z,35.10
2018-02-22T15:58:21.161Z,34.97
2018-02-22T16:00:48.932Z,40.93
2018-02-22T16:03:16.628Z,38.43
2018-02-22T16:05:44.385Z,32.80
2018-02-22T16:08:12.795Z,35.13
2018-02-22T16:10:40.500Z,32.33
2018-02-22T16:13:08.384Z,37.73
2018-02-22T16:15:36.035Z,38.03
2018-02-22T16:18:04.528Z,36.93
2018-02-22T16:20:32.185Z,35.17
2018-02-22T16:22:59.905Z,28.93
2018-02-22T16:25:27.822Z,29.10
2018-02-22T16:27:55.648Z,31.70
2018-02-22T16:30:23.776Z,29.20
2018-02-22T16:32:51.477Z,33.37
2018-02-22T16:35:19.287Z,27.00
2018-02-22T16:37:47.154Z,30.50
2018-02-22T16:40:15.017Z,29.60
2018-02-22T16:42:42.993Z,31.77
2018-02-22T16:45:10.739Z,32.40
2018-02-22T16:47:38.614Z,33.97
2018-02-22T16:50:06.488Z,30.53
2018-02-22T16:52:34.242Z,35.60
2018-02-22T16:55:01.913Z,29.37
2018-02-22T16:57:29.587Z,32.87
2018-02-22T16:59:58.242Z,30.83
2018-02-22T17:02:25.987Z,29.50
2018-02-22T17:04:55.081Z,31.83
2018-02-22T17:07:23.711Z,26.53
2018-02-22T17:09:51.568Z,29.40
2018-02-22T17:12:19.355Z,28.67
2018-02-22T17:14:47.300Z,31.47
2018-02-22T17:17:15.508Z,28.37
2018-02-22T17:19:43.454Z,31.23
2018-02-22T17:22:12.030Z,37.07
2018-02-22T17:24:40.006Z,33.80
2018-02-22T17:27:14.680Z,34.03
2018-02-22T17:29:48.186Z,38.17
2018-02-22T17:32:18.449Z,36.63
2018-02-22T17:34:46.419Z,37.47
2018-02-22T17:37:14.282Z,40.83
2018-02-22T17:39:47.788Z,43.50
2018-02-22T17:42:15.604Z,40.33
2018-02-22T17:44:43.520Z,41.07
2018-02-22T17:47:11.387Z,44.40
2018-02-22T17:49:39.160Z,38.80
2018-02-22T17:52:08.449Z,39.03
2018-02-22T17:54:36.203Z,39.40
2018-02-22T17:57:04.183Z,34.73
2018-02-22T17:59:31.984Z,35.03
2018-02-22T18:02:00.022Z,36.70
2018-02-22T18:04:29.630Z,31.33
2018-02-22T18:06:57.604Z,33.30
2018-02-22T18:09:25.462Z,30.67
2018-02-22T18:11:53.328Z,29.60
2018-02-22T18:14:21.194Z,28.27
2018-02-22T18:16:49.063Z,31.70
2018-02-22T18:19:16.928Z,27.30
2018-02-22T18:21:44.668Z,28.30
2018-02-22T18:24:12.655Z,26.10
2018-02-22T18:26:40.494Z,28.33
2018-02-22T18:29:08.387Z,26.63
2018-02-22T18:31:36.167Z,27.20
2018-02-22T18:34:04.023Z,27.43
2018-02-22T18:36:31.996Z,23.47
2018-02-22T18:39:05.388Z,27.17
2018-02-22T18:41:38.988Z,24.03
2018-02-22T18:44:12.543Z,19.57
2018-02-22T18:46:40.460Z,16.67
2018-02-22T18:49:08.330Z,15.53
2018-02-22T18:51:36.084Z,12.80
2018-02-22T18:54:04.055Z,13.50
2018-02-22T18:56:31.919Z,13.97
2018-02-22T18:59:00.102Z,11.30
2018-02-22T19:01:27.967Z,13.20
2018-02-22T19:03:55.828Z,12.93
2018-02-22T19:06:23.794Z,13.23
2018-02-22T19:08:51.799Z,14.47
2018-02-22T19:11:20.437Z,14.77
2018-02-22T19:13:48.124Z,12.33
2018-02-22T19:16:15.800Z,9.70
2018-02-22T19:18:43.602Z,11.93
2018-02-22T19:21:11.410Z,12.70
2018-02-22T19:23:39.238Z,11.70
2018-02-22T19:26:07.044Z,11.23
2018-02-22T19:28:34.808Z,11.47
2018-02-22T19:31:02.482Z,10.20
2018-02-22T19:33:30.261Z,11.13
2018-02-22T19:35:58.926Z,9.77
2018-02-22T19:38:28.213Z,10.70
2018-02-22T19:40:55.847Z,9.67
2018-02-22T19:43:23.513Z,10.10
2018-02-22T19:45:51.204Z,10.93
2018-02-22T19:48:21.238Z,8.93
2018-02-22T19:50:49.067Z,10.60
2018-02-22T19:53:16.832Z,6.70
2018-02-22T19:55:44.542Z,6.80
2018-02-22T19:58:12.997Z,6.50
2018-02-22T20:00:40.958Z,8.60
2018-02-22T20:03:08.726Z,8.37
2018-02-22T20:05:36.421Z,6.30
2018-02-22T20:08:04.825Z,8.23
2018-02-22T20:10:32.523Z,10.27
2018-02-22T20:13:00.201Z,6.67
2018-02-22T20:15:27.849Z,8.53
2018-02-22T20:17:55.602Z,6.20
2018-02-22T20:20:23.382Z,8.10
2018-02-22T20:22:51.041Z,6.73
2018-02-22T20:25:18.826Z,6.40
2018-02-22T20:27:47.990Z,6.90
2018-02-22T20:30:15.705Z,7.10
2018-02-22T20:32:44.136Z,7.20
2018-02-22T20:35:11.921Z,5.40
2018-02-22T20:37:39.785Z,8.23
2018-02-22T20:40:08.964Z,6.80
2018-02-22T20:42:36.850Z,8.17
2018-02-22T20:45:04.615Z,5.80
2018-02-22T20:47:32.321Z,6.77
2018-02-22T20:50:00.732Z,6.30
2018-02-22T20:52:31.489Z,7.40
2018-02-22T20:55:18.004Z,6.90
2018-02-22T20:57:47.380Z,6.90
2018-02-22T21:00:15.080Z,6.37
2018-02-22T21:02:42.764Z,6.73
2018-02-22T21:05:11.286Z,7.27
2018-02-22T21:07:39.168Z,9.90
2018-02-22T21:10:06.938Z,7.20
2018-02-22T21:12:34.885Z,8.50
2018-02-22T21:15:02.549Z,7.73
2018-02-22T21:17:30.265Z,8.37
2018-02-22T21:19:58.794Z,6.70
2018-02-22T21:22:26.497Z,8.00
2018-02-22T21:24:54.233Z,9.40
2018-02-22T21:27:21.910Z,6.87
2018-02-22T21:29:49.766Z,6.40
2018-02-22T21:32:18.455Z,6.77
2018-02-22T21:34:46.277Z,6.20
2018-02-22T21:37:16.082Z,6.83
2018-02-22T21:39:47.029Z,9.80
2018-02-22T21:42:15.041Z,7.93
2018-02-22T21:44:42.912Z,8.20
2018-02-22T21:47:10.781Z,8.43
2018-02-22T21:49:38.640Z,7.47
2018-02-22T21:52:06.410Z,8.03
2018-02-22T21:54:34.057Z,8.43
2018-02-22T21:57:01.926Z,12.40
2018-02-22T21:59:29.693Z,7.67
2018-02-22T22:01:57.374Z,10.57
2018-02-22T22:04:25.208Z,8.93
2018-02-22T22:06:52.925Z,8.53
2018-02-22T22:09:21.510Z,11.47
2018-02-22T22:11:50.054Z,9.10
2018-02-22T22:14:17.731Z,9.43
2018-02-22T22:16:45.370Z,8.00
2018-02-22T22:19:13.044Z,7.27
2018-02-22T22:21:40.800Z,6.17
2018-02-22T22:24:08.473Z,7.10
2018-02-22T22:26:36.086Z,9.67
2018-02-22T22:29:03.886Z,7.87
2018-02-22T22:31:31.656Z,9.37
2018-02-22T22:33:59.308Z,6.40
2018-02-22T22:36:27.013Z,10.47
2018-02-22T22:38:55.464Z,9.53
2018-02-22T22:41:23.149Z,8.37
2018-02-22T22:43:51.598Z,12.90
2018-02-22T22:46:19.366Z,9.63
2018-02-22T22:48:47.032Z,8.97
2018-02-22T22:51:14.706Z,12.40
2018-02-22T22:53:42.353Z,7.13
2018-02-22T22:56:10.101Z,9.60
2018-02-22T22:58:38.180Z,10.50
2018-02-22T23:01:05.875Z,10.73
2018-02-22T23:03:33.641Z,18.40
2018-02-22T23:06:01.333Z,8.27
2018-02-22T23:08:28.926Z,9.93
2018-02-22T23:10:56.687Z,10.30
2018-02-22T23:13:24.368Z,15.83
2018-02-22T23:15:52.016Z,12.17
2018-02-22T23:18:19.657Z,10.10
2018-02-22T23:20:47.438Z,11.60
2018-02-22T23:23:15.221Z,9.40
2018-02-22T23:25:42.865Z,8.43
2018-02-22T23:28:10.953Z,13.67
2018-02-22T23:30:38.699Z,11.60
2018-02-22T23:33:06.466Z,8.20
2018-02-22T23:35:34.309Z,12.37
2018-02-22T23:38:01.998Z,15.87
2018-02-22T23:40:31.592Z,9.00
2018-02-22T23:42:59.313Z,8.90
2018-02-22T23:45:27.846Z,12.90
2018-02-22T23:47:55.528Z,13.50
2018-02-22T23:50:23.992Z,12.73
2018-02-22T23:52:51.660Z,13.63
2018-02-22T23:55:19.414Z,11.20
2018-02-22T23:57:47.231Z,13.10
